Time;durP1;ratioP1;P1;durP2;ratioP2;P2;SDS_P1;SDS_P2;PMS_P1;PMS_P2;Temp;Humidity;BMP_temperature;BMP_pressure;BME280_temperature;BME280_humidity;BME280_pressure;Samples;Min_cycle;Max_cycle;Signal;HPM_P1;HPM_P2
2022/02/27 00:01:04;;;;;;;;;;;;;;;;;;5016411;28;19948;-51
2022/02/27 00:03:30;;;;;;;;;;;;;;;;;;5020457;28;20015;-51
2022/02/27 00:05:55;;;;;;;;;;;;;;;;;;5013252;28;20331;-49
2022/02/27 00:08:20;;;;;;;;;;;;;;;;;;5017458;28;19996;-46
2022/02/27 00:10:45;;;;;;;;;;;;;;;;;;5015056;28;19917;-46
2022/02/27 00:13:10;;;;;;;;;;;;;;;;;;5013207;28;19944;-48
2022/02/27 00:15:35;;;;;;;;;;;;;;;;;;5019782;28;20012;-49
2022/02/27 00:18:00;;;;;;;;;;;;;;;;;;5019808;28;20464;-50
2022/02/27 00:20:26;;;;;;;;;;;;;;;;;;5019080;28;19916;-46
2022/02/27 00:22:51;;;;;;;;;;;;;;;;;;5019586;28;19960;-46
2022/02/27 00:25:16;;;;;;;;;;;;;;;;;;5021516;28;19932;-44
2022/02/27 00:27:41;;;;;;;;;;;;;;;;;;5019099;28;20396;-48
2022/02/27 00:30:07;;;;;;;;;;;;;;;;;;5021280;28;19959;-44
2022/02/27 00:32:32;;;;;;;;;;;;;;;;;;5018932;28;19914;-47
2022/02/27 00:34:57;;;;;;;;;;;;;;;;;;5019963;28;20414;-52
2022/02/27 00:37:22;;;;;;;;;;;;;;;;;;5020055;28;19955;-46
2022/02/27 00:39:47;;;;;;;;;;;;;;;;;;5020869;28;20383;-44
2022/02/27 00:42:13;;;;;;;;;;;;;;;;;;5022024;28;19920;-45
2022/02/27 00:44:38;;;;;;;;;;;;;;;;;;5017853;28;19924;-46
2022/02/27 00:47:03;;;;;;;;;;;;;;;;;;5022943;28;20392;-45
2022/02/27 00:49:28;;;;;;;;;;;;;;;;;;5018047;28;19925;-44
2022/02/27 00:51:53;;;;;;;;;;;;;;;;;;5021317;28;20476;-52
2022/02/27 00:54:19;;;;;;;;;;;;;;;;;;5021020;28;19976;-48
2022/02/27 00:56:44;;;;;;;;;;;;;;;;;;5020889;28;19965;-47
2022/02/27 00:59:09;;;;;;;;;;;;;;;;;;5016214;28;20293;-45
2022/02/27 01:01:34;;;;;;;;;;;;;;;;;;5017065;28;19991;-48
2022/02/27 01:04:00;;;;;;;;;;;;;;;;;;5019687;28;19913;-45
2022/02/27 01:06:25;;;;;;;;;;;;;;;;;;5019012;28;20015;-48
2022/02/27 01:08:51;;;;;;;;;;;;;;;;;;5019255;28;20008;-47
2022/02/27 01:11:16;;;;;;;;;;;;;;;;;;5018386;28;19967;-45
2022/02/27 01:13:41;;;;;;;;;;;;;;;;;;5019976;28;19993;-50
2022/02/27 01:16:06;;;;;;;;;;;;;;;;;;5017082;28;20384;-44
2022/02/27 01:18:31;;;;;;;;;;;;;;;;;;5015612;28;19913;-47
2022/02/27 01:20:56;;;;;;;;;;;;;;;;;;5018347;28;19996;-48
2022/02/27 01:23:22;;;;;;;;;;;;;;;;;;5021829;28;20467;-49
2022/02/27 01:25:47;;;;;;;;;;;;;;;;;;5017496;28;19952;-49
2022/02/27 01:28:12;;;;;;;;;;;;;;;;;;5018349;28;19917;-43
2022/02/27 01:30:37;;;;;;;;;;;;;;;;;;5016884;28;19920;-45
2022/02/27 01:33:02;;;;;;;;;;;;;;;;;;5017699;28;20361;-46
2022/02/27 01:35:27;;;;;;;;;;;;;;;;;;5020297;28;19913;-44
2022/02/27 01:37:53;;;;;;;;;;;;;;;;;;5017047;28;19916;-44
2022/02/27 01:40:18;;;;;;;;;;;;;;;;;;5016158;28;19928;-46
2022/02/27 01:42:43;;;;;;;;;;;;;;;;;;5017699;28;19917;-46
2022/02/27 01:45:08;;;;;;;;;;;;;;;;;;5018072;28;19944;-44
2022/02/27 01:47:33;;;;;;;;;;;;;;;;;;5017929;28;19913;-44
2022/02/27 01:49:58;;;;;;;;;;;;;;;;;;5019789;28;19929;-45
2022/02/27 01:52:23;;;;;;;;;;;;;;;;;;5018873;28;19913;-43
2022/02/27 01:54:49;;;;;;;;;;;;;;;;;;5015493;28;19924;-51
2022/02/27 01:57:14;;;;;;;;;;;;;;;;;;5018606;28;19913;-45
2022/02/27 01:59:39;;;;;;;;;;;;;;;;;;5019105;28;20585;-46
2022/02/27 02:02:04;;;;;;;;;;;;;;;;;;5020166;28;19928;-47
2022/02/27 02:04:29;;;;;;;;;;;;;;;;;;5018192;28;19913;-48
2022/02/27 02:06:54;;;;;;;;;;;;;;;;;;5016887;28;19917;-45
2022/02/27 02:09:20;;;;;;;;;;;;;;;;;;5018016;28;19932;-49
2022/02/27 02:11:45;;;;;;;;;;;;;;;;;;5016870;28;20000;-45
2022/02/27 02:14:10;;;;;;;;;;;;;;;;;;5017225;28;20392;-49
2022/02/27 02:16:35;;;;;;;;;;;;;;;;;;5017599;28;19917;-46
2022/02/27 02:19:00;;;;;;;;;;;;;;;;;;5016215;28;19945;-45
2022/02/27 02:21:26;;;;;;;;;;;;;;;;;;5020356;28;20395;-49
2022/02/27 02:23:51;;;;;;;;;;;;;;;;;;5016323;28;19909;-45
2022/02/27 02:26:16;;;;;;;;;;;;;;;;;;5016750;28;19988;-44
2022/02/27 02:28:44;;;;;;;;;;;;;;;;;;5013764;28;20672;-45
2022/02/27 02:31:09;;;;;;;;;;;;;;;;;;5015761;28;19913;-47
2022/02/27 02:33:34;;;;;;;;;;;;;;;;;;5018680;28;20372;-48
2022/02/27 02:35:59;;;;;;;;;;;;;;;;;;5015856;28;19921;-46
2022/02/27 02:38:26;;;;;;;;;;;;;;;;;;5013724;28;20313;-48
2022/02/27 02:40:51;;;;;;;;;;;;;;;;;;5018538;28;19928;-46
2022/02/27 02:43:16;;;;;;;;;;;;;;;;;;5016141;28;19910;-49
2022/02/27 02:45:41;;;;;;;;;;;;;;;;;;5013538;28;19913;-47
2022/02/27 02:48:06;;;;;;;;;;;;;;;;;;5015498;28;19913;-45
2022/02/27 02:50:31;;;;;;;;;;;;;;;;;;5015659;28;19980;-44
2022/02/27 02:52:57;;;;;;;;;;;;;;;;;;5016752;28;20266;-44
2022/02/27 02:55:22;;;;;;;;;;;;;;;;;;5019994;28;20007;-46
2022/02/27 02:57:47;;;;;;;;;;;;;;;;;;5020343;28;20527;-47
2022/02/27 03:00:12;;;;;;;;;;;;;;;;;;5013287;28;19918;-50
2022/02/27 03:02:37;;;;;;;;;;;;;;;;;;5017634;28;19931;-50
2022/02/27 03:05:05;;;;;;;;;;;;;;;;;;5014660;28;20369;-47
2022/02/27 03:07:30;;;;;;;;;;;;;;;;;;5017609;28;20365;-47
2022/02/27 03:09:55;;;;;;;;;;;;;;;;;;5016965;28;19920;-47
2022/02/27 03:12:21;;;;;;;;;;;;;;;;;;5017556;28;20312;-45
2022/02/27 03:14:46;;;;;;;;;;;;;;;;;;5015459;28;19936;-44
2022/02/27 03:17:11;;;;;;;;;;;;;;;;;;5013907;28;19913;-44
2022/02/27 03:19:36;;;;;;;;;;;;;;;;;;5014927;28;19914;-44
2022/02/27 03:22:01;;;;;;;;;;;;;;;;;;5016634;28;20347;-47
2022/02/27 03:24:26;;;;;;;;;;;;;;;;;;5018420;28;19921;-49
2022/02/27 03:26:52;;;;;;;;;;;;;;;;;;5016603;28;19968;-48
2022/02/27 03:29:17;;;;;;;;;;;;;;;;;;5016477;28;19916;-50
2022/02/27 03:31:42;;;;;;;;;;;;;;;;;;5031678;28;19989;-46
2022/02/27 03:34:07;;;;;;;;;;;;;;;;;;5017517;28;19939;-48
2022/02/27 03:36:32;;;;;;;;;;;;;;;;;;5022128;28;19917;-49
2022/02/27 03:38:57;;;;;;;;;;;;;;;;;;5019269;28;20464;-47
2022/02/27 03:41:23;;;;;;;;;;;;;;;;;;5018935;28;19925;-44
2022/02/27 03:43:48;;;;;;;;;;;;;;;;;;5013578;28;19921;-46
2022/02/27 03:46:13;;;;;;;;;;;;;;;;;;5015105;28;20420;-48
2022/02/27 03:48:40;;;;;;;;;;;;;;;;;;5015861;28;20277;-45
2022/02/27 03:51:05;;;;;;;;;;;;;;;;;;5018375;28;19925;-48
2022/02/27 03:53:30;;;;;;;;;;;;;;;;;;5015389;28;19913;-50
2022/02/27 03:55:56;;;;;;;;;;;;;;;;;;5015527;28;20359;-46
2022/02/27 03:58:21;;;;;;;;;;;;;;;;;;5014237;28;19909;-47
2022/02/27 04:00:46;;;;;;;;;;;;;;;;;;5015705;28;19925;-48
2022/02/27 04:03:12;;;;;;;;;;;;;;;;;;5016998;28;19913;-47
2022/02/27 04:05:37;;;;;;;;;;;;;;;;;;5017566;28;20405;-47
2022/02/27 04:08:03;;;;;;;;;;;;;;;;;;5014926;28;19923;-45
2022/02/27 04:10:28;;;;;;;;;;;;;;;;;;5014194;28;19916;-46
2022/02/27 04:12:54;;;;;;;;;;;;;;;;;;5012616;28;19913;-44
2022/02/27 04:15:19;;;;;;;;;;;;;;;;;;5013531;28;19964;-49
2022/02/27 04:17:44;;;;;;;;;;;;;;;;;;5015422;28;19917;-45
2022/02/27 04:20:09;;;;;;;;;;;;;;;;;;5016122;28;19909;-48
2022/02/27 04:22:34;;;;;;;;;;;;;;;;;;5014794;28;20005;-48
2022/02/27 04:24:59;;;;;;;;;;;;;;;;;;5017553;28;20538;-44
2022/02/27 04:27:24;;;;;;;;;;;;;;;;;;5013904;28;19990;-45
2022/02/27 04:29:50;;;;;;;;;;;;;;;;;;5015110;28;20026;-47
2022/02/27 04:32:15;;;;;;;;;;;;;;;;;;5015719;28;19918;-44
2022/02/27 04:34:40;;;;;;;;;;;;;;;;;;5017836;28;19951;-46
2022/02/27 04:37:05;;;;;;;;;;;;;;;;;;5015363;28;19955;-45
2022/02/27 04:39:30;;;;;;;;;;;;;;;;;;5016927;28;19920;-45
2022/02/27 04:41:55;;;;;;;;;;;;;;;;;;5016858;28;20035;-46
2022/02/27 04:44:21;;;;;;;;;;;;;;;;;;5012826;28;19929;-48
2022/02/27 04:46:46;;;;;;;;;;;;;;;;;;5011858;28;20036;-46
2022/02/27 04:49:13;;;;;;;;;;;;;;;;;;5014874;28;19913;-46
2022/02/27 04:51:39;;;;;;;;;;;;;;;;;;5014301;28;20008;-47
2022/02/27 04:54:04;;;;;;;;;;;;;;;;;;5017344;28;19957;-46
2022/02/27 04:56:29;;;;;;;;;;;;;;;;;;5013599;28;19913;-49
2022/02/27 04:58:54;;;;;;;;;;;;;;;;;;5012697;28;19909;-44
2022/02/27 05:01:19;;;;;;;;;;;;;;;;;;5020263;28;19918;-47
2022/02/27 05:03:44;;;;;;;;;;;;;;;;;;5020058;28;19936;-45
2022/02/27 05:06:10;;;;;;;;;;;;;;;;;;5021068;28;20012;-44
2022/02/27 05:08:35;;;;;;;;;;;;;;;;;;5017452;28;19909;-47
2022/02/27 05:11:01;;;;;;;;;;;;;;;;;;5020063;28;19963;-44
2022/02/27 05:13:26;;;;;;;;;;;;;;;;;;5019696;28;19941;-45
2022/02/27 05:15:51;;;;;;;;;;;;;;;;;;5022365;28;19917;-47
2022/02/27 05:18:16;;;;;;;;;;;;;;;;;;5021093;28;20349;-47
2022/02/27 05:20:41;;;;;;;;;;;;;;;;;;5020707;28;20368;-44
2022/02/27 05:23:07;;;;;;;;;;;;;;;;;;5020888;28;19963;-43
2022/02/27 05:25:32;;;;;;;;;;;;;;;;;;5017984;28;20446;-47
2022/02/27 05:27:57;;;;;;;;;;;;;;;;;;5018362;28;19921;-46
2022/02/27 05:30:22;;;;;;;;;;;;;;;;;;5019943;28;19922;-49
2022/02/27 05:32:47;;;;;;;;;;;;;;;;;;5014559;28;20408;-50
2022/02/27 05:35:12;;;;;;;;;;;;;;;;;;5018493;28;19917;-49
2022/02/27 05:37:38;;;;;;;;;;;;;;;;;;5014603;28;20455;-48
2022/02/27 05:40:04;;;;;;;;;;;;;;;;;;5018447;28;19916;-48
2022/02/27 05:42:29;;;;;;;;;;;;;;;;;;5019797;28;19948;-43
2022/02/27 05:44:54;;;;;;;;;;;;;;;;;;5019736;28;20500;-44
2022/02/27 05:47:19;;;;;;;;;;;;;;;;;;5018507;28;20268;-43
2022/02/27 05:49:44;;;;;;;;;;;;;;;;;;5019443;28;20008;-43
2022/02/27 05:52:12;;;;;;;;;;;;;;;;;;5015105;28;20226;-46
2022/02/27 05:54:37;;;;;;;;;;;;;;;;;;5016354;28;20495;-45
2022/02/27 05:57:02;;;;;;;;;;;;;;;;;;5017286;28;19917;-42
2022/02/27 05:59:27;;;;;;;;;;;;;;;;;;5020227;28;19955;-46
2022/02/27 06:01:52;;;;;;;;;;;;;;;;;;5018336;28;19921;-47
2022/02/27 06:04:17;;;;;;;;;;;;;;;;;;5019629;28;19995;-46
2022/02/27 06:06:43;;;;;;;;;;;;;;;;;;5017194;28;19913;-46
2022/02/27 06:09:08;;;;;;;;;;;;;;;;;;5017009;28;19916;-44
2022/02/27 06:11:33;;;;;;;;;;;;;;;;;;5020130;28;20660;-45
2022/02/27 06:13:58;;;;;;;;;;;;;;;;;;5017839;28;19914;-44
2022/02/27 06:16:23;;;;;;;;;;;;;;;;;;5032037;28;20414;-44
2022/02/27 06:18:48;;;;;;;;;;;;;;;;;;5015785;28;19945;-46
2022/02/27 06:21:13;;;;;;;;;;;;;;;;;;5020496;28;19921;-49
2022/02/27 06:23:39;;;;;;;;;;;;;;;;;;5015493;28;20288;-47
2022/02/27 06:26:04;;;;;;;;;;;;;;;;;;5018757;28;20016;-46
2022/02/27 06:28:29;;;;;;;;;;;;;;;;;;5017012;28;20292;-44
2022/02/27 06:30:54;;;;;;;;;;;;;;;;;;5019115;28;19917;-47
2022/02/27 06:33:19;;;;;;;;;;;;;;;;;;5018167;28;20277;-44
2022/02/27 06:35:44;;;;;;;;;;;;;;;;;;5018238;28;20387;-43
2022/02/27 06:38:09;;;;;;;;;;;;;;;;;;5013735;28;19932;-44
2022/02/27 06:40:35;;;;;;;;;;;;;;;;;;5017275;28;19977;-44
2022/02/27 06:43:00;;;;;;;;;;;;;;;;;;5016273;28;20396;-47
2022/02/27 06:45:25;;;;;;;;;;;;;;;;;;5018039;28;19917;-45
2022/02/27 06:47:50;;;;;;;;;;;;;;;;;;5013606;28;19956;-45
2022/02/27 06:50:15;;;;;;;;;;;;;;;;;;5016431;28;20042;-45
2022/02/27 06:52:40;;;;;;;;;;;;;;;;;;5014296;28;19932;-43
2022/02/27 06:55:06;;;;;;;;;;;;;;;;;;5009970;28;20036;-48
2022/02/27 06:57:31;;;;;;;;;;;;;;;;;;5013099;28;20387;-44
2022/02/27 06:59:56;;;;;;;;;;;;;;;;;;5016485;28;19913;-45
2022/02/27 07:02:21;;;;;;;;;;;;;;;;;;5012799;28;20288;-47
2022/02/27 07:04:46;;;;;;;;;;;;;;;;;;5015183;28;20000;-43
2022/02/27 07:07:11;;;;;;;;;;;;;;;;;;5016626;28;20373;-42
2022/02/27 07:09:36;;;;;;;;;;;;;;;;;;5014418;28;19920;-46
2022/02/27 07:12:02;;;;;;;;;;;;;;;;;;5015781;28;20016;-46
2022/02/27 07:14:27;;;;;;;;;;;;;;;;;;5014244;28;20380;-42
2022/02/27 07:16:52;;;;;;;;;;;;;;;;;;5012189;28;19972;-47
2022/02/27 07:19:17;;;;;;;;;;;;;;;;;;5014050;28;19949;-43
2022/02/27 07:21:42;;;;;;;;;;;;;;;;;;5013759;28;20351;-45
2022/02/27 07:24:07;;;;;;;;;;;;;;;;;;5015389;28;19941;-43
2022/02/27 07:26:32;;;;;;;;;;;;;;;;;;5015099;28;20771;-43
2022/02/27 07:28:58;;;;;;;;;;;;;;;;;;5015746;28;19913;-45
2022/02/27 07:31:23;;;;;;;;;;;;;;;;;;5014854;28;20381;-47
2022/02/27 07:33:48;;;;;;;;;;;;;;;;;;5013256;28;19917;-45
2022/02/27 07:36:13;;;;;;;;;;;;;;;;;;5011446;28;19936;-46
2022/02/27 07:38:38;;;;;;;;;;;;;;;;;;5015375;28;20369;-44
2022/02/27 07:41:03;;;;;;;;;;;;;;;;;;5013798;28;19921;-43
2022/02/27 07:43:29;;;;;;;;;;;;;;;;;;5030338;28;19925;-42
2022/02/27 07:45:54;;;;;;;;;;;;;;;;;;5012571;28;20486;-42
2022/02/27 07:48:19;;;;;;;;;;;;;;;;;;5013242;28;20036;-41
2022/02/27 07:50:44;;;;;;;;;;;;;;;;;;5018386;28;19925;-41
2022/02/27 07:53:09;;;;;;;;;;;;;;;;;;5015363;28;20462;-41
2022/02/27 07:55:34;;;;;;;;;;;;;;;;;;5014242;28;19920;-44
2022/02/27 07:58:00;;;;;;;;;;;;;;;;;;5014581;28;19913;-42
2022/02/27 08:00:25;;;;;;;;;;;;;;;;;;5014098;28;20448;-41
2022/02/27 08:02:50;;;;;;;;;;;;;;;;;;5016927;28;19918;-41
2022/02/27 08:05:15;;;;;;;;;;;;;;;;;;5009890;28;20222;-44
2022/02/27 08:07:40;;;;;;;;;;;;;;;;;;5014837;28;19913;-41
2022/02/27 08:10:05;;;;;;;;;;;;;;;;;;5012433;28;20434;-44
2022/02/27 08:12:31;;;;;;;;;;;;;;;;;;5015732;28;19917;-44
2022/02/27 08:14:56;;;;;;;;;;;;;;;;;;5014233;28;19979;-42
2022/02/27 08:17:21;;;;;;;;;;;;;;;;;;5015189;28;20344;-43
2022/02/27 08:19:48;;;;;;;;;;;;;;;;;;5012210;28;19913;-43
2022/02/27 08:22:13;;;;;;;;;;;;;;;;;;5014880;28;19928;-42
2022/02/27 08:24:38;;;;;;;;;;;;;;;;;;5015520;28;19913;-41
2022/02/27 08:27:03;;;;;;;;;;;;;;;;;;5015140;28;20408;-41
2022/02/27 08:29:28;;;;;;;;;;;;;;;;;;5012836;28;19970;-41
2022/02/27 08:31:53;;;;;;;;;;;;;;;;;;5011271;28;20004;-42
2022/02/27 08:34:18;;;;;;;;;;;;;;;;;;5012222;28;20651;-47
2022/02/27 08:36:44;;;;;;;;;;;;;;;;;;5015198;28;20016;-43
2022/02/27 08:39:09;;;;;;;;;;;;;;;;;;5016485;28;19917;-41
2022/02/27 08:41:34;;;;;;;;;;;;;;;;;;5015507;28;20113;-46
2022/02/27 08:43:59;;;;;;;;;;;;;;;;;;5016504;28;19964;-41
2022/02/27 08:46:24;;;;;;;;;;;;;;;;;;5017846;28;19913;-42
2022/02/27 08:48:49;;;;;;;;;;;;;;;;;;5017214;28;20496;-39
2022/02/27 08:51:15;;;;;;;;;;;;;;;;;;5014047;28;19976;-41
2022/02/27 08:53:40;;;;;;;;;;;;;;;;;;5018645;28;20464;-41
2022/02/27 08:56:05;;;;;;;;;;;;;;;;;;5019023;28;19928;-41
2022/02/27 08:58:30;;;;;;;;;;;;;;;;;;5017600;28;19913;-41
2022/02/27 09:00:55;;;;;;;;;;;;;;;;;;5015273;28;19924;-44
2022/02/27 09:03:27;;;;;;;;;;;;;;;;;;5020953;28;19920;-41
2022/02/27 09:05:52;;;;;;;;;;;;;;;;;;5016916;28;20416;-40
2022/02/27 09:08:17;;;;;;;;;;;;;;;;;;5014921;28;20356;-40
2022/02/27 09:10:42;;;;;;;;;;;;;;;;;;5015150;28;20008;-42
2022/02/27 09:13:07;;;;;;;;;;;;;;;;;;5016552;28;20388;-41
2022/02/27 09:15:32;;;;;;;;;;;;;;;;;;5019949;28;19936;-44
2022/02/27 09:17:58;;;;;;;;;;;;;;;;;;5015135;28;20786;-44
2022/02/27 09:20:23;;;;;;;;;;;;;;;;;;5015422;28;19921;-40
2022/02/27 09:22:48;;;;;;;;;;;;;;;;;;5019313;28;19929;-40
2022/02/27 09:25:13;;;;;;;;;;;;;;;;;;5019769;28;19917;-42
2022/02/27 09:27:38;;;;;;;;;;;;;;;;;;5017148;28;20268;-42
2022/02/27 09:30:03;;;;;;;;;;;;;;;;;;5016079;28;19919;-41
2022/02/27 09:32:29;;;;;;;;;;;;;;;;;;5016296;28;19921;-40
2022/02/27 09:34:54;;;;;;;;;;;;;;;;;;5016180;28;19917;-40
2022/02/27 09:37:19;;;;;;;;;;;;;;;;;;5016337;28;20015;-43
2022/02/27 09:39:44;;;;;;;;;;;;;;;;;;5015368;28;19936;-40
2022/02/27 09:42:09;;;;;;;;;;;;;;;;;;5018657;28;19921;-41
2022/02/27 09:44:34;;;;;;;;;;;;;;;;;;5019630;28;19913;-41
2022/02/27 09:46:59;;;;;;;;;;;;;;;;;;5016697;28;20002;-45
2022/02/27 09:49:25;;;;;;;;;;;;;;;;;;5017444;28;20396;-43
2022/02/27 09:51:50;;;;;;;;;;;;;;;;;;5013086;28;19924;-42
2022/02/27 09:54:15;;;;;;;;;;;;;;;;;;5016376;28;19959;-42
2022/02/27 09:56:41;;;;;;;;;;;;;;;;;;5014424;28;19931;-42
2022/02/27 09:59:06;;;;;;;;;;;;;;;;;;5017140;28;20080;-43
2022/02/27 10:01:32;;;;;;;;;;;;;;;;;;5017513;28;20400;-42
2022/02/27 10:04:00;;;;;;;;;;;;;;;;;;5013621;28;19979;-43
2022/02/27 10:06:25;;;;;;;;;;;;;;;;;;5011079;28;19940;-42
2022/02/27 10:08:50;;;;;;;;;;;;;;;;;;5014165;28;20373;-42
2022/02/27 10:11:18;;;;;;;;;;;;;;;;;;5013014;28;19909;-42
2022/02/27 10:13:44;;;;;;;;;;;;;;;;;;5013906;28;20411;-41
2022/02/27 10:16:09;;;;;;;;;;;;;;;;;;5014084;28;20331;-40
2022/02/27 10:18:34;;;;;;;;;;;;;;;;;;5015359;28;19944;-41
2022/02/27 10:20:59;;;;;;;;;;;;;;;;;;5015530;28;20311;-43
2022/02/27 10:23:25;;;;;;;;;;;;;;;;;;5012033;28;19917;-43
2022/02/27 10:25:50;;;;;;;;;;;;;;;;;;5014675;28;19921;-43
2022/02/27 10:28:15;;;;;;;;;;;;;;;;;;5016506;28;20030;-42
2022/02/27 10:30:41;;;;;;;;;;;;;;;;;;5015243;28;19941;-48
2022/02/27 10:33:06;;;;;;;;;;;;;;;;;;5017302;28;19913;-45
2022/02/27 10:35:31;;;;;;;;;;;;;;;;;;5016512;28;20215;-44
2022/02/27 10:37:56;;;;;;;;;;;;;;;;;;5019132;28;19955;-45
2022/02/27 10:40:22;;;;;;;;;;;;;;;;;;5016754;28;20012;-43
2022/02/27 10:42:47;;;;;;;;;;;;;;;;;;5015335;28;20284;-51
2022/02/27 10:45:14;;;;;;;;;;;;;;;;;;5019390;28;19963;-47
2022/02/27 10:47:39;;;;;;;;;;;;;;;;;;5017590;28;19921;-50
2022/02/27 10:50:05;;;;;;;;;;;;;;;;;;5014987;28;19921;-49
2022/02/27 10:52:30;;;;;;;;;;;;;;;;;;5017241;28;19917;-50
2022/02/27 10:54:55;;;;;;;;;;;;;;;;;;5019470;28;20619;-44
2022/02/27 10:57:20;;;;;;;;;;;;;;;;;;5010413;28;19980;-47
2022/02/27 10:59:45;;;;;;;;;;;;;;;;;;5013829;28;19909;-46
2022/02/27 11:02:10;;;;;;;;;;;;;;;;;;5015277;28;20447;-46
2022/02/27 11:04:36;;;;;;;;;;;;;;;;;;5016876;28;19913;-51
2022/02/27 11:07:02;;;;;;;;;;;;;;;;;;5021278;28;19913;-47
2022/02/27 11:09:27;;;;;;;;;;;;;;;;;;5014072;28;20392;-46
2022/02/27 11:11:52;;;;;;;;;;;;;;;;;;5014739;28;20057;-47
2022/02/27 11:14:17;;;;;;;;;;;;;;;;;;5015584;28;19913;-46
2022/02/27 11:16:43;;;;;;;;;;;;;;;;;;5015900;28;19914;-48
2022/02/27 11:19:08;;;;;;;;;;;;;;;;;;5017303;28;19965;-47
2022/02/27 11:21:34;;;;;;;;;;;;;;;;;;5019386;28;20015;-49
2022/02/27 11:23:59;;;;;;;;;;;;;;;;;;5017450;28;19920;-48
2022/02/27 11:26:24;;;;;;;;;;;;;;;;;;5016929;28;19913;-48
2022/02/27 11:28:49;;;;;;;;;;;;;;;;;;5012591;28;20389;-46
2022/02/27 11:31:15;;;;;;;;;;;;;;;;;;5013775;28;20419;-46
2022/02/27 11:33:41;;;;;;;;;;;;;;;;;;5014073;28;19913;-48
2022/02/27 11:36:06;;;;;;;;;;;;;;;;;;5015834;28;19920;-50
2022/02/27 11:38:31;;;;;;;;;;;;;;;;;;5014461;28;19952;-46
2022/02/27 11:40:56;;;;;;;;;;;;;;;;;;5016675;28;19918;-47
2022/02/27 11:43:21;;;;;;;;;;;;;;;;;;5015365;28;20070;-47
2022/02/27 11:45:47;;;;;;;;;;;;;;;;;;5014461;28;19914;-52
2022/02/27 11:48:12;;;;;;;;;;;;;;;;;;5016077;28;19957;-46
2022/02/27 11:50:41;;;;;;;;;;;;;;;;;;5016815;28;19931;-50
2022/02/27 11:53:06;;;;;;;;;;;;;;;;;;5013838;28;19910;-47
2022/02/27 11:55:31;;;;;;;;;;;;;;;;;;5013669;28;19920;-47
2022/02/27 11:57:56;;;;;;;;;;;;;;;;;;5015547;28;19933;-49
2022/02/27 12:00:21;;;;;;;;;;;;;;;;;;5015577;28;20546;-49
2022/02/27 12:02:51;;;;;;;;;;;;;;;;;;5016319;28;19917;-50
2022/02/27 12:05:16;;;;;;;;;;;;;;;;;;5016521;28;20666;-50
2022/02/27 12:07:41;;;;;;;;;;;;;;;;;;5015965;28;19913;-53
2022/02/27 12:10:07;;;;;;;;;;;;;;;;;;5019879;28;19969;-46
2022/02/27 12:12:32;;;;;;;;;;;;;;;;;;5019270;28;20538;-49
2022/02/27 12:14:57;;;;;;;;;;;;;;;;;;5019050;28;20025;-50
2022/02/27 12:17:22;;;;;;;;;;;;;;;;;;5022199;28;20084;-51
2022/02/27 12:19:48;;;;;;;;;;;;;;;;;;5014366;28;19913;-49
2022/02/27 12:22:14;;;;;;;;;;;;;;;;;;5020503;28;20342;-48
2022/02/27 12:24:39;;;;;;;;;;;;;;;;;;5020127;28;20412;-52
2022/02/27 12:27:04;;;;;;;;;;;;;;;;;;5020776;28;19962;-51
2022/02/27 12:29:31;;;;;;;;;;;;;;;;;;5017706;28;19913;-50
2022/02/27 12:31:56;;;;;;;;;;;;;;;;;;5019252;28;19913;-49
2022/02/27 12:34:22;;;;;;;;;;;;;;;;;;5018170;28;20316;-50
2022/02/27 12:36:47;;;;;;;;;;;;;;;;;;5021168;28;20365;-47
2022/02/27 12:39:12;;;;;;;;;;;;;;;;;;5016996;28;20401;-49
2022/02/27 12:41:37;;;;;;;;;;;;;;;;;;5015549;28;19917;-48
2022/02/27 12:44:02;;;;;;;;;;;;;;;;;;5020074;28;19921;-52
2022/02/27 12:46:27;;;;;;;;;;;;;;;;;;5019130;28;20526;-46
2022/02/27 12:51:37;;;;;;;;;;;;;;;;;;5020345;28;20304;-50
2022/02/27 12:54:02;;;;;;;;;;;;;;;;;;5020351;28;20000;-47
2022/02/27 12:56:31;;;;;;;;;;;;;;;;;;5018899;28;20004;-48
2022/02/27 12:58:56;;;;;;;;;;;;;;;;;;5020157;28;20467;-46
2022/02/27 13:01:21;;;;;;;;;;;;;;;;;;5021763;28;19924;-48
2022/02/27 13:03:46;;;;;;;;;;;;;;;;;;5017571;28;20303;-49
2022/02/27 13:06:11;;;;;;;;;;;;;;;;;;5018904;28;19913;-47
2022/02/27 13:08:36;;;;;;;;;;;;;;;;;;5017410;28;20005;-47
2022/02/27 13:11:02;;;;;;;;;;;;;;;;;;5021460;28;19917;-46
2022/02/27 13:13:27;;;;;;;;;;;;;;;;;;5016630;28;19937;-46
2022/02/27 13:15:52;;;;;;;;;;;;;;;;;;5020757;28;19918;-51
2022/02/27 13:18:17;;;;;;;;;;;;;;;;;;5018725;28;20354;-47
2022/02/27 13:20:42;;;;;;;;;;;;;;;;;;5019757;28;20378;-50
2022/02/27 13:23:07;;;;;;;;;;;;;;;;;;5018747;28;19964;-47
2022/02/27 13:25:33;;;;;;;;;;;;;;;;;;5017817;28;20004;-49
2022/02/27 13:28:00;;;;;;;;;;;;;;;;;;5019116;28;20361;-50
2022/02/27 13:30:25;;;;;;;;;;;;;;;;;;5017590;28;20340;-51
2022/02/27 13:32:51;;;;;;;;;;;;;;;;;;5023879;28;19917;-48
2022/02/27 13:35:16;;;;;;;;;;;;;;;;;;5017977;28;19913;-47
2022/02/27 13:37:41;;;;;;;;;;;;;;;;;;5018418;28;19914;-46
2022/02/27 13:40:07;;;;;;;;;;;;;;;;;;5016522;28;20012;-47
2022/02/27 13:42:32;;;;;;;;;;;;;;;;;;5016155;28;19925;-47
2022/02/27 13:44:57;;;;;;;;;;;;;;;;;;5018037;28;19954;-46
2022/02/27 13:47:22;;;;;;;;;;;;;;;;;;5019310;28;20399;-51
2022/02/27 13:49:47;;;;;;;;;;;;;;;;;;5017474;28;20006;-47
2022/02/27 13:52:12;;;;;;;;;;;;;;;;;;5020558;28;19918;-49
2022/02/27 13:54:38;;;;;;;;;;;;;;;;;;5014941;28;20581;-45
2022/02/27 13:57:03;;;;;;;;;;;;;;;;;;5021543;28;19976;-47
2022/02/27 13:59:28;;;;;;;;;;;;;;;;;;5015625;28;19920;-50
2022/02/27 14:01:53;;;;;;;;;;;;;;;;;;5017444;28;19996;-50
2022/02/27 14:04:18;;;;;;;;;;;;;;;;;;5016767;28;20445;-47
2022/02/27 14:06:43;;;;;;;;;;;;;;;;;;5018735;28;20143;-46
2022/02/27 14:09:09;;;;;;;;;;;;;;;;;;5020019;28;19917;-48
2022/02/27 14:11:35;;;;;;;;;;;;;;;;;;5015956;28;19957;-48
2022/02/27 14:14:00;;;;;;;;;;;;;;;;;;5018231;28;19968;-49
2022/02/27 14:16:25;;;;;;;;;;;;;;;;;;5017531;28;19933;-52
2022/02/27 14:18:50;;;;;;;;;;;;;;;;;;5017848;28;19920;-48
2022/02/27 14:21:15;;;;;;;;;;;;;;;;;;5021807;28;20262;-49
2022/02/27 14:23:41;;;;;;;;;;;;;;;;;;5018681;28;19914;-46
2022/02/27 14:26:06;;;;;;;;;;;;;;;;;;5018691;28;19967;-47
2022/02/27 14:28:33;;;;;;;;;;;;;;;;;;5030809;28;20538;-46
2022/02/27 14:30:58;;;;;;;;;;;;;;;;;;5017320;28;19920;-47
2022/02/27 14:33:23;;;;;;;;;;;;;;;;;;5014978;28;20669;-49
2022/02/27 14:35:48;;;;;;;;;;;;;;;;;;5017461;28;19913;-48
2022/02/27 14:38:13;;;;;;;;;;;;;;;;;;5017270;28;20583;-45
2022/02/27 14:40:39;;;;;;;;;;;;;;;;;;5014676;28;19914;-47
2022/02/27 14:43:04;;;;;;;;;;;;;;;;;;5018477;28;19940;-50
2022/02/27 14:45:31;;;;;;;;;;;;;;;;;;5017299;28;20384;-49
2022/02/27 14:47:56;;;;;;;;;;;;;;;;;;5017205;28;19913;-47
2022/02/27 14:50:21;;;;;;;;;;;;;;;;;;5016768;28;19966;-46
2022/02/27 14:52:47;;;;;;;;;;;;;;;;;;5014426;28;20008;-50
2022/02/27 14:55:12;;;;;;;;;;;;;;;;;;5016746;28;19919;-49
2022/02/27 14:57:37;;;;;;;;;;;;;;;;;;5018368;28;20238;-48
2022/02/27 15:00:02;;;;;;;;;;;;;;;;;;5018795;28;19920;-52
2022/02/27 15:02:27;;;;;;;;;;;;;;;;;;5017251;28;20048;-51
2022/02/27 15:04:52;;;;;;;;;;;;;;;;;;5016101;28;19913;-48
2022/02/27 15:07:18;;;;;;;;;;;;;;;;;;5019916;28;19909;-48
2022/02/27 15:09:43;;;;;;;;;;;;;;;;;;5017160;28;20296;-46
2022/02/27 15:12:08;;;;;;;;;;;;;;;;;;5017135;28;19953;-47
2022/02/27 15:14:33;;;;;;;;;;;;;;;;;;5015660;28;19920;-51
2022/02/27 15:16:59;;;;;;;;;;;;;;;;;;5017107;28;20366;-48
2022/02/27 15:19:24;;;;;;;;;;;;;;;;;;5015745;28;19913;-48
2022/02/27 15:21:49;;;;;;;;;;;;;;;;;;5016969;28;19923;-45
2022/02/27 15:24:14;;;;;;;;;;;;;;;;;;5015196;28;19913;-46
2022/02/27 15:26:39;;;;;;;;;;;;;;;;;;5014331;28;19920;-49
2022/02/27 15:29:04;;;;;;;;;;;;;;;;;;5013380;28;19931;-45
2022/02/27 15:31:30;;;;;;;;;;;;;;;;;;5031995;28;19909;-48
2022/02/27 15:33:55;;;;;;;;;;;;;;;;;;5018136;28;20395;-47
2022/02/27 15:36:20;;;;;;;;;;;;;;;;;;5013896;28;19909;-47
2022/02/27 15:38:46;;;;;;;;;;;;;;;;;;5016579;28;19913;-51
2022/02/27 15:41:12;;;;;;;;;;;;;;;;;;5015184;28;20024;-46
2022/02/27 15:43:37;;;;;;;;;;;;;;;;;;5017794;28;19949;-47
2022/02/27 15:46:02;;;;;;;;;;;;;;;;;;5015265;28;20005;-48
2022/02/27 15:48:27;;;;;;;;;;;;;;;;;;5013897;28;20361;-48
2022/02/27 15:50:52;;;;;;;;;;;;;;;;;;5015869;28;19931;-50
2022/02/27 15:53:17;;;;;;;;;;;;;;;;;;5018994;28;19909;-49
2022/02/27 15:55:43;;;;;;;;;;;;;;;;;;5016405;28;19913;-47
2022/02/27 15:58:08;;;;;;;;;;;;;;;;;;5015762;28;20365;-52
2022/02/27 16:00:33;;;;;;;;;;;;;;;;;;5017781;28;20307;-52
2022/02/27 16:02:58;;;;;;;;;;;;;;;;;;5018225;28;19909;-49
2022/02/27 16:05:24;;;;;;;;;;;;;;;;;;5015821;28;19914;-50
2022/02/27 16:07:49;;;;;;;;;;;;;;;;;;5013078;28;19984;-51
2022/02/27 16:10:15;;;;;;;;;;;;;;;;;;5016059;28;19909;-50
2022/02/27 16:12:40;;;;;;;;;;;;;;;;;;5016166;28;20734;-48
2022/02/27 16:15:06;;;;;;;;;;;;;;;;;;5015982;28;19968;-46
2022/02/27 16:17:31;;;;;;;;;;;;;;;;;;5017440;28;20379;-45
2022/02/27 16:19:56;;;;;;;;;;;;;;;;;;5013587;28;20296;-45
2022/02/27 16:22:21;;;;;;;;;;;;;;;;;;5014467;28;19914;-46
2022/02/27 16:24:46;;;;;;;;;;;;;;;;;;5019055;28;20004;-48
2022/02/27 16:27:11;;;;;;;;;;;;;;;;;;5020804;28;20333;-47
2022/02/27 16:29:36;;;;;;;;;;;;;;;;;;5017282;28;20420;-47
2022/02/27 16:32:02;;;;;;;;;;;;;;;;;;5015496;28;19916;-46
2022/02/27 16:34:27;;;;;;;;;;;;;;;;;;5018881;28;19997;-48